Terminal Aerodrome Forecast
Issued by NWS

Home | Current Version | Previous Version | Text Only | Print | Product List | Glossary On
Versions: 1 2 3 4 5 6 7 8 9 10 11 12
000
FTUS42 KMLB 242300
TAFTIX
TAF
KTIX 242320Z 2500/2524 11012KT P6SM FEW050
     FM250200 VRB03KT P6SM FEW080 SCT250
     FM251400 26006KT P6SM FEW040
      AMD NOT SKED 2501/2511=

USA.gov is the U.S. government's official web portal to all federal, state and local government web resources and services.